Terminal Aerodrome Forecast
Issued by NWS

Home | Current Version | Previous Version | Text Only | Print | Product List | Glossary On
Versions: 1 2 3 4 5 6 7 8 9 10 11 12 13 14 15 16
000
FTAK31 PAJN 251100
TAFASI
TAF
PASI 251126Z 2512/2612 25011KT 6SM -SHRA FEW010 BKN015 OVC025
      WS020/24030KT
     FM251500 24010KT P6SM -SHRA SCT020 OVC040 WS020/25025KT
     FM252000 24010KT P6SM VCSH SCT030 OVC060
     FM260300 24005KT P6SM VCSH SCT040 BKN070=

USA.gov is the U.S. government's official web portal to all federal, state and local government web resources and services.